Time;durP1;ratioP1;P1;durP2;ratioP2;P2;SDS_P1;SDS_P2;PMS_P1;PMS_P2;Temp;Humidity;BMP_temperature;BMP_pressure;BME280_temperature;BME280_humidity;BME280_pressure;Samples;Min_cycle;Max_cycle;Signal;HPM_P1;HPM_P2
2023/03/09 00:01:56;;;;;;;28.90;14.50;;;1.90;99.90;;;;;;5026142;28;20688;-72
2023/03/09 00:04:23;;;;;;;29.97;14.03;;;1.80;99.90;;;;;;5024944;28;20249;-72
2023/03/09 00:06:50;;;;;;;28.37;13.83;;;1.80;99.90;;;;;;5041880;28;20235;-71
2023/03/09 00:09:17;;;;;;;28.83;13.33;;;1.80;99.90;;;;;;5041205;28;20212;-71
2023/03/09 00:11:45;;;;;;;31.37;13.77;;;1.70;99.90;;;;;;5043742;28;20207;-71
2023/03/09 00:14:14;;;;;;;28.23;14.07;;;1.80;99.90;;;;;;5045594;28;20206;-71
2023/03/09 00:16:41;;;;;;;29.17;15.03;;;1.80;99.90;;;;;;5045254;28;20207;-72
2023/03/09 00:19:08;;;;;;;32.07;15.63;;;1.70;99.90;;;;;;5042152;28;20618;-71
2023/03/09 00:21:36;;;;;;;30.70;13.73;;;1.70;99.90;;;;;;5023678;28;20262;-71
2023/03/09 00:24:13;;;;;;;27.50;13.30;;;1.70;99.90;;;;;;5026016;28;20290;-72
2023/03/09 00:26:42;;;;;;;30.37;14.97;;;1.70;99.90;;;;;;5045622;28;20223;-73
2023/03/09 00:29:11;;;;;;;29.53;14.67;;;1.70;99.90;;;;;;5023150;28;20268;-72
2023/03/09 00:31:39;;;;;;;32.47;13.90;;;1.60;99.90;;;;;;5041791;28;20693;-72
2023/03/09 00:34:05;;;;;;;38.17;15.80;;;1.60;99.90;;;;;;5042454;28;20305;-72
2023/03/09 00:36:32;;;;;;;33.17;14.67;;;1.50;99.90;;;;;;5045678;28;20197;-73
2023/03/09 00:38:59;;;;;;;33.57;15.10;;;1.60;99.90;;;;;;5042352;28;20205;-72
2023/03/09 00:41:29;;;;;;;32.63;14.90;;;1.60;99.90;;;;;;5042390;28;20244;-73
2023/03/09 00:44:00;;;;;;;29.93;14.97;;;1.60;99.90;;;;;;5039680;28;20217;-71
2023/03/09 00:46:28;;;;;;;30.90;14.10;;;1.60;99.90;;;;;;5042887;28;20202;-71
2023/03/09 00:48:54;;;;;;;35.13;15.03;;;1.60;99.90;;;;;;5023610;28;20237;-72
2023/03/09 00:51:21;;;;;;;33.60;15.27;;;1.60;99.90;;;;;;5041762;28;20576;-72
2023/03/09 00:53:48;;;;;;;31.37;14.07;;;1.60;99.90;;;;;;5043289;28;20201;-72
2023/03/09 00:56:18;;;;;;;32.90;14.40;;;1.60;99.90;;;;;;5044809;28;20216;-72
2023/03/09 00:58:45;;;;;;;36.97;16.40;;;1.60;99.90;;;;;;5024688;28;20223;-72
2023/03/09 01:01:15;;;;;;;36.33;16.03;;;1.70;99.90;;;;;;5024926;28;20581;-72
2023/03/09 01:03:42;;;;;;;38.10;16.47;;;1.70;99.90;;;;;;5024225;28;20704;-72
2023/03/09 01:06:10;;;;;;;35.40;16.90;;;1.70;99.90;;;;;;5022099;28;20241;-72
2023/03/09 01:08:37;;;;;;;39.70;16.27;;;1.70;99.90;;;;;;5039133;28;20752;-72
2023/03/09 01:11:09;;;;;;;35.40;16.13;;;1.70;99.90;;;;;;5041753;28;20285;-71
2023/03/09 01:13:37;;;;;;;36.30;15.73;;;1.70;99.90;;;;;;5046462;28;20205;-72
2023/03/09 01:16:04;;;;;;;35.50;15.60;;;1.60;99.90;;;;;;5042207;28;20212;-71
2023/03/09 01:18:31;;;;;;;36.60;17.97;;;1.70;99.90;;;;;;5039750;28;20560;-72
2023/03/09 01:20:59;;;;;;;36.03;17.07;;;1.60;99.90;;;;;;5023916;28;20568;-72
2023/03/09 01:23:26;;;;;;;36.47;16.80;;;1.70;99.90;;;;;;5044777;28;20200;-72
2023/03/09 01:25:53;;;;;;;33.83;17.03;;;1.70;99.90;;;;;;5040895;28;20298;-72
2023/03/09 01:28:20;;;;;;;36.97;16.73;;;1.70;99.90;;;;;;5042610;28;20230;-72
2023/03/09 01:30:47;;;;;;;39.87;17.67;;;1.70;99.90;;;;;;5041831;28;20670;-72
2023/03/09 01:33:14;;;;;;;39.27;17.17;;;1.70;99.90;;;;;;5040761;28;20751;-72
2023/03/09 01:35:41;;;;;;;43.30;18.73;;;1.60;99.90;;;;;;5041867;28;20293;-73
2023/03/09 01:38:08;;;;;;;38.60;18.00;;;1.70;99.90;;;;;;5040109;28;20211;-72
2023/03/09 01:40:35;;;;;;;40.80;18.63;;;1.70;99.90;;;;;;5039820;28;20215;-73
2023/03/09 01:43:27;;;;;;;40.40;17.20;;;1.70;99.90;;;;;;5041644;28;20296;-73
2023/03/09 01:46:19;;;;;;;36.20;15.90;;;1.70;99.90;;;;;;5044141;28;20293;-73
2023/03/09 01:48:59;;;;;;;38.53;16.83;;;1.80;99.90;;;;;;5038694;28;20300;-72
2023/03/09 01:51:36;;;;;;;36.80;16.53;;;1.80;99.90;;;;;;5039540;28;20202;-72
2023/03/09 01:54:05;;;;;;;38.67;15.60;;;1.80;99.90;;;;;;5039986;28;20203;-72
2023/03/09 01:56:33;;;;;;;35.67;17.33;;;1.80;99.90;;;;;;5045707;28;20198;-72
2023/03/09 01:59:03;;;;;;;36.77;16.87;;;1.80;99.90;;;;;;5041553;28;20298;-72
2023/03/09 02:01:30;;;;;;;33.93;16.43;;;1.80;99.90;;;;;;5041693;28;20204;-71
2023/03/09 02:04:07;;;;;;;37.53;17.20;;;1.80;99.90;;;;;;5029089;28;20283;-73
2023/03/09 02:06:35;;;;;;;32.67;15.90;;;1.80;99.90;;;;;;5039196;28;20599;-72
2023/03/09 02:09:15;;;;;;;36.77;16.93;;;1.80;99.90;;;;;;5039145;28;20254;-72
2023/03/09 02:11:43;;;;;;;38.53;17.57;;;1.80;99.90;;;;;;5040983;28;20236;-72
2023/03/09 02:14:12;;;;;;;34.17;16.93;;;1.80;99.90;;;;;;5044237;28;20293;-72
2023/03/09 02:16:39;;;;;;;36.73;16.83;;;1.80;99.90;;;;;;5038237;28;20417;-73
2023/03/09 02:19:11;;;;;;;33.93;16.03;;;1.80;99.90;;;;;;5020595;28;20298;-72
2023/03/09 02:21:48;;;;;;;34.23;15.93;;;1.80;99.90;;;;;;5041420;28;20201;-72
2023/03/09 02:24:24;;;;;;;32.30;15.30;;;1.90;99.90;;;;;;5043941;28;20251;-71
2023/03/09 02:27:00;;;;;;;38.03;16.70;;;1.90;99.90;;;;;;5042126;28;20240;-71
2023/03/09 02:29:28;;;;;;;35.90;16.27;;;1.80;99.90;;;;;;5037555;28;20207;-71
2023/03/09 02:31:55;;;;;;;34.40;16.03;;;1.90;99.90;;;;;;5022877;28;20223;-72
2023/03/09 02:34:22;;;;;;;34.30;16.53;;;1.90;99.90;;;;;;5039817;28;20218;-72
2023/03/09 02:36:48;;;;;;;38.20;16.40;;;1.90;99.90;;;;;;5039933;28;20217;-72
2023/03/09 02:39:23;;;;;;;37.50;16.63;;;1.80;99.90;;;;;;5041910;28;20517;-73
2023/03/09 02:41:52;;;;;;;36.87;16.93;;;1.90;99.90;;;;;;5020278;28;20280;-72
2023/03/09 02:44:19;;;;;;;35.93;17.00;;;1.80;99.90;;;;;;5040776;28;20593;-71
2023/03/09 02:46:46;;;;;;;35.50;16.47;;;1.80;99.90;;;;;;5039111;28;20213;-72
2023/03/09 02:49:12;;;;;;;40.63;18.00;;;1.80;99.90;;;;;;5040276;28;20236;-72
2023/03/09 02:51:39;;;;;;;39.10;17.13;;;1.80;99.90;;;;;;5038227;28;20214;-72
2023/03/09 02:54:06;;;;;;;34.87;16.93;;;1.80;99.90;;;;;;5039341;28;20216;-71
2023/03/09 02:56:32;;;;;;;36.33;16.93;;;1.90;99.90;;;;;;5046841;28;20249;-72
2023/03/09 02:59:01;;;;;;;38.80;17.73;;;1.90;99.90;;;;;;5021818;28;20285;-71
2023/03/09 03:01:29;;;;;;;37.10;16.97;;;1.90;99.90;;;;;;5043274;28;20675;-72
2023/03/09 03:03:56;;;;;;;37.03;16.73;;;1.90;99.90;;;;;;5022068;28;20800;-73
2023/03/09 03:06:22;;;;;;;35.93;17.67;;;1.90;99.90;;;;;;5019718;28;20237;-70
2023/03/09 03:08:49;;;;;;;38.90;17.73;;;1.90;99.90;;;;;;5022782;28;20233;-72
2023/03/09 03:11:16;;;;;;;35.23;16.97;;;1.90;99.90;;;;;;5038494;28;20222;-72
2023/03/09 03:13:43;;;;;;;39.60;16.63;;;1.90;99.90;;;;;;5040414;28;20209;-73
2023/03/09 03:16:10;;;;;;;37.43;16.90;;;1.90;99.90;;;;;;5043384;28;20267;-71
2023/03/09 03:18:37;;;;;;;40.63;18.23;;;1.90;99.90;;;;;;5040994;28;20246;-71
2023/03/09 03:21:04;;;;;;;39.03;18.33;;;1.90;99.90;;;;;;5033332;28;20522;-71
2023/03/09 03:23:30;;;;;;;36.10;16.47;;;1.90;99.90;;;;;;5043276;28;20205;-72
2023/03/09 03:26:04;;;;;;;40.93;18.20;;;1.90;99.90;;;;;;5044517;28;20587;-71
2023/03/09 03:28:31;;;;;;;38.87;17.70;;;1.80;99.90;;;;;;5044500;28;20244;-72
2023/03/09 03:30:58;;;;;;;38.73;17.57;;;1.80;99.90;;;;;;5038605;28;20233;-71
2023/03/09 03:33:25;;;;;;;40.67;17.97;;;1.80;99.90;;;;;;5044009;28;20256;-70
2023/03/09 03:35:52;;;;;;;34.40;16.83;;;1.80;99.90;;;;;;5043262;28;20208;-72
2023/03/09 03:38:19;;;;;;;38.20;17.47;;;1.80;99.90;;;;;;5024916;28;20233;-72
2023/03/09 03:40:45;;;;;;;38.20;17.87;;;1.80;99.90;;;;;;5042657;28;20215;-72
2023/03/09 03:43:12;;;;;;;41.27;18.23;;;1.80;99.90;;;;;;5044744;28;20517;-72
2023/03/09 03:45:39;;;;;;;42.10;16.90;;;1.80;99.90;;;;;;5041191;28;20376;-72
2023/03/09 03:48:06;;;;;;;38.17;17.13;;;1.80;99.90;;;;;;5045722;28;20229;-72
2023/03/09 03:50:33;;;;;;;35.93;16.83;;;1.80;99.90;;;;;;5041980;28;20206;-72
2023/03/09 03:52:59;;;;;;;37.27;17.03;;;1.80;99.90;;;;;;5028898;28;20201;-72
2023/03/09 03:55:27;;;;;;;40.63;18.23;;;1.80;99.90;;;;;;5048473;28;20207;-71
2023/03/09 03:57:53;;;;;;;36.47;17.43;;;1.70;99.90;;;;;;5040991;28;20288;-72
2023/03/09 04:00:21;;;;;;;39.70;17.20;;;1.70;99.90;;;;;;5031908;28;20690;-71
2023/03/09 04:02:47;;;;;;;39.43;17.43;;;1.70;99.90;;;;;;5043726;28;20229;-71
2023/03/09 04:05:14;;;;;;;41.13;18.40;;;1.80;99.90;;;;;;5041464;28;20230;-72
2023/03/09 04:07:44;;;;;;;40.73;16.97;;;1.80;99.90;;;;;;5041824;28;20237;-71
2023/03/09 04:10:11;;;;;;;37.73;16.77;;;1.80;99.90;;;;;;5044454;28;20197;-71
2023/03/09 04:12:37;;;;;;;40.77;17.37;;;1.80;99.90;;;;;;5045747;28;20202;-70
2023/03/09 04:15:05;;;;;;;39.90;18.03;;;1.80;99.90;;;;;;5042481;28;20205;-71
2023/03/09 04:17:32;;;;;;;39.53;17.23;;;1.80;99.90;;;;;;5042079;28;20381;-72
2023/03/09 04:19:58;;;;;;;44.10;16.67;;;1.80;99.90;;;;;;5026590;28;20459;-72
2023/03/09 04:22:25;;;;;;;41.23;17.70;;;1.80;99.90;;;;;;5045570;28;20216;-71
2023/03/09 04:24:52;;;;;;;41.00;19.07;;;1.90;99.90;;;;;;5022678;28;20252;-71
2023/03/09 04:27:19;;;;;;;41.13;18.00;;;1.90;99.90;;;;;;5040328;28;20211;-72
2023/03/09 04:29:45;;;;;;;42.03;18.63;;;1.80;99.90;;;;;;5042421;28;20721;-72
2023/03/09 04:32:12;;;;;;;40.40;18.20;;;1.80;99.90;;;;;;5039566;28;20210;-71
2023/03/09 04:34:39;;;;;;;43.37;17.97;;;1.80;99.90;;;;;;5043202;28;20202;-71
2023/03/09 04:37:05;;;;;;;37.13;18.47;;;1.80;99.90;;;;;;5022440;28;20298;-71
2023/03/09 04:39:33;;;;;;;41.53;17.90;;;1.90;99.90;;;;;;5043451;28;20504;-73
2023/03/09 04:41:59;;;;;;;38.70;17.33;;;1.80;99.90;;;;;;5039676;28;20209;-72
2023/03/09 04:44:26;;;;;;;39.80;17.50;;;1.90;99.90;;;;;;5042560;28;20333;-72
2023/03/09 04:46:53;;;;;;;42.77;17.90;;;1.90;99.90;;;;;;5041390;28;20213;-71
2023/03/09 04:49:19;;;;;;;37.27;17.63;;;1.90;99.90;;;;;;5041744;28;20341;-72
2023/03/09 04:51:47;;;;;;;38.10;17.93;;;1.90;99.90;;;;;;5042849;28;20277;-71
2023/03/09 04:54:14;;;;;;;39.70;17.97;;;2.00;99.90;;;;;;5041334;28;20206;-71
2023/03/09 04:56:40;;;;;;;39.03;17.13;;;2.00;99.90;;;;;;5033874;28;20287;-73
2023/03/09 04:59:07;;;;;;;42.27;18.37;;;2.00;99.90;;;;;;5040888;28;20209;-70
2023/03/09 05:01:34;;;;;;;40.47;17.67;;;2.00;99.90;;;;;;5024243;28;20285;-71
2023/03/09 05:04:01;;;;;;;38.43;18.37;;;2.00;99.90;;;;;;5041928;28;20233;-72
2023/03/09 05:06:27;;;;;;;41.13;17.97;;;2.00;99.90;;;;;;5039180;28;20324;-71
2023/03/09 05:08:54;;;;;;;38.07;18.30;;;2.00;99.90;;;;;;5039451;28;20240;-72
2023/03/09 05:11:21;;;;;;;40.13;18.93;;;2.00;99.90;;;;;;5024916;28;20544;-71
2023/03/09 05:13:47;;;;;;;40.20;17.97;;;2.00;99.90;;;;;;5043722;28;20292;-71
2023/03/09 05:16:14;;;;;;;39.90;18.43;;;2.00;99.90;;;;;;5025467;28;20304;-71
2023/03/09 05:18:41;;;;;;;39.07;18.53;;;2.00;99.90;;;;;;5039905;28;20232;-72
2023/03/09 05:21:08;;;;;;;39.70;18.90;;;2.00;99.90;;;;;;5042387;28;20600;-72
2023/03/09 05:23:35;;;;;;;40.57;17.87;;;2.00;99.90;;;;;;5024835;28;20253;-72
2023/03/09 05:26:06;;;;;;;37.57;17.17;;;2.10;99.90;;;;;;5026361;28;20242;-71
2023/03/09 05:28:35;;;;;;;39.97;18.33;;;2.10;99.90;;;;;;5042715;28;20330;-71
2023/03/09 05:31:02;;;;;;;41.70;18.50;;;2.10;99.90;;;;;;5039576;28;20218;-72
2023/03/09 05:33:29;;;;;;;38.67;17.90;;;2.10;99.90;;;;;;5040680;28;20540;-72
2023/03/09 05:35:55;;;;;;;41.70;19.60;;;2.10;99.90;;;;;;5024616;28;20252;-71
2023/03/09 05:38:22;;;;;;;36.83;17.37;;;2.10;99.90;;;;;;5039765;28;20214;-71
2023/03/09 05:40:49;;;;;;;36.90;18.10;;;2.00;99.90;;;;;;5041373;28;20619;-70
2023/03/09 05:43:15;;;;;;;43.80;19.37;;;2.10;99.90;;;;;;5041032;28;20242;-70
2023/03/09 05:45:42;;;;;;;38.40;17.43;;;2.10;99.90;;;;;;5041451;28;20234;-72
2023/03/09 05:48:09;;;;;;;46.03;19.10;;;2.10;99.90;;;;;;5020128;28;20222;-72
2023/03/09 05:50:37;;;;;;;42.97;18.63;;;2.10;99.90;;;;;;5041427;28;20242;-71
2023/03/09 05:53:04;;;;;;;45.80;20.07;;;2.10;99.90;;;;;;5039682;28;20210;-72
2023/03/09 05:55:31;;;;;;;41.67;18.40;;;2.10;99.90;;;;;;5025541;28;20204;-71
2023/03/09 05:57:58;;;;;;;39.73;18.63;;;2.10;99.90;;;;;;5041594;28;20348;-72
2023/03/09 06:00:24;;;;;;;41.63;18.93;;;2.10;99.90;;;;;;5035925;28;20638;-70
2023/03/09 06:02:51;;;;;;;43.43;19.53;;;2.10;99.90;;;;;;5041578;28;20225;-72
2023/03/09 06:05:18;;;;;;;44.97;19.47;;;2.10;99.90;;;;;;5047351;28;20595;-74
2023/03/09 06:07:45;;;;;;;40.23;19.57;;;2.20;99.90;;;;;;5031860;28;20201;-71
2023/03/09 06:10:12;;;;;;;39.50;19.37;;;2.10;99.90;;;;;;5033882;28;20642;-71
2023/03/09 06:12:39;;;;;;;40.37;18.03;;;2.10;99.90;;;;;;5041630;28;20202;-71
2023/03/09 06:15:07;;;;;;;46.77;19.33;;;2.10;99.90;;;;;;5042964;28;20216;-70
2023/03/09 06:17:34;;;;;;;44.33;19.27;;;2.10;99.90;;;;;;5023775;28;20244;-71
2023/03/09 06:20:02;;;;;;;42.03;19.20;;;2.10;99.90;;;;;;5031470;28;20230;-72
2023/03/09 06:22:29;;;;;;;42.07;19.33;;;2.10;99.90;;;;;;5046723;28;20356;-71
2023/03/09 06:24:56;;;;;;;43.43;18.83;;;2.10;99.90;;;;;;5048614;28;20223;-73
2023/03/09 06:27:22;;;;;;;44.77;20.00;;;2.10;99.90;;;;;;5023250;28;20340;-72
2023/03/09 06:29:49;;;;;;;43.87;18.97;;;2.10;99.90;;;;;;5037294;28;20227;-70
2023/03/09 06:32:16;;;;;;;40.47;19.13;;;2.10;99.90;;;;;;5040931;28;20557;-70
2023/03/09 06:34:43;;;;;;;44.23;19.57;;;2.10;99.90;;;;;;5038067;28;20225;-71
2023/03/09 06:37:09;;;;;;;44.70;19.60;;;2.10;99.90;;;;;;5037655;28;20669;-72
2023/03/09 06:39:36;;;;;;;46.63;20.63;;;2.10;99.90;;;;;;5042665;28;20297;-71
2023/03/09 06:42:04;;;;;;;46.80;20.13;;;2.20;99.90;;;;;;5043710;28;20202;-72
2023/03/09 06:44:31;;;;;;;41.27;18.57;;;2.20;99.90;;;;;;5035836;28;20740;-72
2023/03/09 06:46:57;;;;;;;45.83;19.57;;;2.30;99.90;;;;;;5013116;28;20203;-72
2023/03/09 06:49:24;;;;;;;43.63;19.63;;;2.30;99.90;;;;;;5039810;28;20226;-70
2023/03/09 06:51:51;;;;;;;44.17;19.70;;;2.30;99.90;;;;;;5030752;28;20202;-71
2023/03/09 06:54:18;;;;;;;48.70;19.83;;;2.30;99.90;;;;;;5048328;28;20215;-72
2023/03/09 06:56:45;;;;;;;43.63;19.37;;;2.30;99.90;;;;;;5031807;28;20294;-71
2023/03/09 06:59:11;;;;;;;44.60;19.63;;;2.40;99.90;;;;;;5041812;28;20735;-71
2023/03/09 07:01:38;;;;;;;44.23;20.37;;;2.40;99.90;;;;;;5047477;28;20624;-70
2023/03/09 07:04:05;;;;;;;43.80;20.30;;;2.50;99.90;;;;;;5042687;28;20286;-74
2023/03/09 07:06:31;;;;;;;42.33;19.37;;;2.50;99.90;;;;;;5042579;28;20239;-71
2023/03/09 07:08:58;;;;;;;41.33;19.43;;;2.50;99.90;;;;;;5047445;28;20231;-71
2023/03/09 07:11:25;;;;;;;43.73;19.47;;;2.50;99.90;;;;;;5041613;28;20232;-71
2023/03/09 07:13:52;;;;;;;46.63;22.38;;;2.50;99.90;;;;;;5048570;28;20444;-70
2023/03/09 07:16:19;;;;;;;42.63;19.67;;;2.60;99.90;;;;;;5042061;28;20647;-72
2023/03/09 07:18:45;;;;;;;42.03;20.20;;;2.60;99.90;;;;;;5041658;28;20579;-71
2023/03/09 07:21:12;;;;;;;40.60;19.20;;;2.60;99.90;;;;;;5042405;28;20669;-71
2023/03/09 07:23:39;;;;;;;39.30;19.07;;;2.60;99.90;;;;;;5042427;28;20315;-69
2023/03/09 07:26:06;;;;;;;43.23;20.13;;;2.60;99.90;;;;;;5047430;28;20205;-70
2023/03/09 07:28:33;;;;;;;42.10;19.90;;;2.60;99.90;;;;;;5044855;28;20214;-71
2023/03/09 07:31:10;;;;;;;43.77;20.23;;;2.60;99.90;;;;;;5043615;28;20237;-72
2023/03/09 07:33:38;;;;;;;40.03;18.57;;;2.60;99.90;;;;;;5044495;28;20250;-72
2023/03/09 07:36:06;;;;;;;38.33;19.53;;;2.70;99.90;;;;;;5040806;28;20596;-71
2023/03/09 07:38:33;;;;;;;37.33;18.67;;;2.70;99.90;;;;;;5043749;28;20210;-71
2023/03/09 07:41:00;;;;;;;41.10;19.20;;;2.70;99.90;;;;;;5024617;28;20214;-69
2023/03/09 07:43:27;;;;;;;42.03;19.73;;;2.70;99.90;;;;;;5024506;28;20221;-71
2023/03/09 07:45:54;;;;;;;40.67;19.47;;;2.70;99.90;;;;;;5043816;28;20611;-72
2023/03/09 07:48:20;;;;;;;42.37;20.27;;;2.80;99.90;;;;;;5026781;28;20210;-72
2023/03/09 07:50:57;;;;;;;42.33;19.93;;;2.80;99.90;;;;;;5023556;28;20258;-72
2023/03/09 07:53:24;;;;;;;39.23;18.70;;;2.80;99.90;;;;;;5046805;28;20306;-70
2023/03/09 07:55:56;;;;;;;43.37;20.30;;;2.90;99.90;;;;;;5046696;28;20301;-70
2023/03/09 07:58:23;;;;;;;39.47;19.10;;;2.90;99.90;;;;;;5044778;28;20688;-72
2023/03/09 08:00:50;;;;;;;46.03;21.20;;;2.90;99.90;;;;;;5047784;28;20203;-71
2023/03/09 08:03:17;;;;;;;44.27;20.67;;;3.00;99.90;;;;;;5041739;28;20221;-72
2023/03/09 08:05:44;;;;;;;45.10;21.30;;;3.00;99.90;;;;;;5045080;28;20339;-71
2023/03/09 08:08:11;;;;;;;41.07;20.43;;;3.00;99.90;;;;;;5043899;28;20305;-72
2023/03/09 08:10:39;;;;;;;42.50;19.67;;;3.10;99.90;;;;;;5022807;28;20321;-72
2023/03/09 08:13:09;;;;;;;38.70;18.73;;;3.10;99.90;;;;;;5044091;28;20321;-72
2023/03/09 08:15:36;;;;;;;41.67;20.50;;;3.20;99.90;;;;;;5041586;28;20358;-74
2023/03/09 08:18:03;;;;;;;54.13;21.40;;;3.30;99.90;;;;;;5043043;28;20243;-72
2023/03/09 08:20:29;;;;;;;40.13;18.70;;;3.40;99.90;;;;;;5022707;28;20208;-72
2023/03/09 08:22:56;;;;;;;39.30;19.63;;;3.40;99.90;;;;;;5040039;28;20577;-74
2023/03/09 08:25:24;;;;;;;43.43;19.70;;;3.40;99.90;;;;;;5042772;28;20209;-73
2023/03/09 08:27:51;;;;;;;40.50;19.77;;;3.40;99.90;;;;;;5043211;28;20573;-72
2023/03/09 08:30:20;;;;;;;43.03;19.97;;;3.40;99.90;;;;;;5042132;28;20279;-73
2023/03/09 08:32:48;;;;;;;42.57;19.30;;;3.40;99.90;;;;;;5025869;28;20678;-73
2023/03/09 08:35:17;;;;;;;42.40;19.90;;;3.40;99.90;;;;;;5040063;28;20209;-73
2023/03/09 08:37:44;;;;;;;38.43;19.00;;;3.40;99.90;;;;;;5042005;28;20201;-73
2023/03/09 08:40:11;;;;;;;40.60;20.53;;;3.50;99.90;;;;;;5041336;28;20272;-73
2023/03/09 08:42:38;;;;;;;43.50;19.93;;;3.50;99.90;;;;;;5040881;28;20217;-75
2023/03/09 08:45:07;;;;;;;39.40;20.50;;;3.60;99.90;;;;;;5025132;28;20221;-73
2023/03/09 08:47:34;;;;;;;38.57;18.43;;;3.70;99.90;;;;;;5042999;28;20264;-73
2023/03/09 08:50:01;;;;;;;38.33;19.33;;;3.60;99.90;;;;;;5040936;28;20616;-73
2023/03/09 08:52:28;;;;;;;40.20;19.77;;;3.60;99.90;;;;;;5023889;28;20237;-73
2023/03/09 08:54:56;;;;;;;37.87;19.53;;;3.60;99.90;;;;;;5030866;28;20201;-75
2023/03/09 08:57:22;;;;;;;38.53;19.47;;;3.60;99.90;;;;;;5022118;28;20779;-73
2023/03/09 08:59:49;;;;;;;37.77;19.23;;;3.60;99.90;;;;;;5043117;28;20213;-73
2023/03/09 09:02:16;;;;;;;36.90;18.60;;;3.60;99.90;;;;;;5040289;28;20210;-74
2023/03/09 09:04:44;;;;;;;37.90;18.53;;;3.60;99.90;;;;;;5043326;28;20233;-75
2023/03/09 09:07:12;;;;;;;38.30;17.80;;;3.70;99.90;;;;;;5041633;28;20209;-73
2023/03/09 09:09:40;;;;;;;39.57;19.30;;;3.70;99.90;;;;;;5022372;28;20325;-73
2023/03/09 09:12:09;;;;;;;38.90;20.57;;;3.80;99.90;;;;;;5023135;28;20659;-73
2023/03/09 09:14:39;;;;;;;40.57;19.93;;;3.90;99.90;;;;;;5042937;28;20239;-74
2023/03/09 09:17:08;;;;;;;38.13;18.43;;;4.00;99.90;;;;;;5048349;28;20191;-73
2023/03/09 09:19:35;;;;;;;41.10;19.67;;;4.10;99.90;;;;;;5049751;28;20199;-73
2023/03/09 09:22:03;;;;;;;39.03;18.30;;;4.10;99.90;;;;;;5048365;28;20204;-74
2023/03/09 09:24:38;;;;;;;35.43;18.40;;;4.10;99.90;;;;;;5047835;28;20302;-73
2023/03/09 09:27:06;;;;;;;37.80;19.07;;;4.20;99.90;;;;;;5024695;28;20237;-73
2023/03/09 09:29:34;;;;;;;33.23;18.03;;;4.20;99.90;;;;;;5042104;28;20228;-73
2023/03/09 09:32:02;;;;;;;38.57;19.07;;;4.20;99.90;;;;;;5038300;28;20270;-73
2023/03/09 09:34:33;;;;;;;37.27;19.03;;;4.20;99.90;;;;;;5024860;28;20316;-73
2023/03/09 09:37:01;;;;;;;37.77;19.97;;;4.30;99.90;;;;;;5039944;28;20201;-72
2023/03/09 09:39:29;;;;;;;39.43;17.93;;;4.30;99.90;;;;;;5041776;28;20235;-74
2023/03/09 09:42:00;;;;;;;37.83;18.97;;;4.40;99.90;;;;;;5038603;28;20674;-73
2023/03/09 09:44:38;;;;;;;37.70;18.90;;;4.50;99.90;;;;;;5040291;28;20230;-73
2023/03/09 09:47:10;;;;;;;37.87;18.80;;;4.60;99.90;;;;;;5049104;28;20197;-72
2023/03/09 09:49:44;;;;;;;36.70;17.57;;;4.60;99.90;;;;;;5039603;28;20239;-72
2023/03/09 09:52:32;;;;;;;38.30;18.57;;;4.70;99.90;;;;;;5039651;28;20301;-74
2023/03/09 09:54:58;;;;;;;32.73;17.00;;;4.80;99.90;;;;;;5047734;28;20294;-74
2023/03/09 09:57:36;;;;;;;35.10;18.10;;;4.70;99.90;;;;;;5021594;28;20242;-74
2023/03/09 10:00:06;;;;;;;34.50;17.33;;;4.70;99.90;;;;;;5027843;28;20209;-73
2023/03/09 10:03:07;;;;;;;30.67;17.20;;;4.70;99.90;;;;;;5039828;28;20280;-73
2023/03/09 10:05:45;;;;;;;34.43;17.07;;;4.70;99.90;;;;;;5043712;28;20713;-76
2023/03/09 10:08:41;;;;;;;32.17;16.40;;;4.80;99.90;;;;;;5040690;28;20256;-75
2023/03/09 10:11:25;;;;;;;32.33;15.80;;;4.80;99.90;;;;;;5041272;28;20242;-73
2023/03/09 10:14:02;;;;;;;34.63;17.60;;;4.80;99.90;;;;;;5044196;28;20288;-73
2023/03/09 10:16:40;;;;;;;31.03;16.07;;;4.80;99.90;;;;;;5020744;28;20202;-73
2023/03/09 10:19:14;;;;;;;31.03;17.20;;;4.80;99.90;;;;;;5039750;28;20253;-75
2023/03/09 10:21:57;;;;;;;34.67;17.00;;;4.90;99.90;;;;;;5032518;28;20202;-75
2023/03/09 10:24:28;;;;;;;30.60;16.00;;;4.90;99.90;;;;;;5040850;28;20224;-74
2023/03/09 10:27:01;;;;;;;28.50;16.23;;;4.90;99.90;;;;;;5023088;28;20256;-73
2023/03/09 10:29:38;;;;;;;35.87;18.33;;;5.00;99.90;;;;;;5016889;28;20260;-73
2023/03/09 10:32:22;;;;;;;34.53;18.10;;;5.00;99.90;;;;;;5032166;28;20304;-73
2023/03/09 10:34:58;;;;;;;34.43;16.50;;;5.00;99.90;;;;;;5031450;28;20652;-73
2023/03/09 10:37:31;;;;;;;33.47;17.13;;;5.00;99.90;;;;;;5039187;28;20213;-75
2023/03/09 10:40:07;;;;;;;32.60;16.93;;;5.00;99.90;;;;;;5039012;28;20340;-74
2023/03/09 10:42:37;;;;;;;32.17;16.97;;;5.00;99.90;;;;;;5038798;28;20216;-74
2023/03/09 10:45:13;;;;;;;30.67;17.37;;;5.00;99.90;;;;;;5040019;28;20244;-75
2023/03/09 10:48:04;;;;;;;33.90;17.57;;;5.00;99.90;;;;;;5040960;28;20279;-73
2023/03/09 10:50:34;;;;;;;31.97;15.93;;;5.10;99.90;;;;;;5041604;28;20345;-72
2023/03/09 10:53:22;;;;;;;33.13;17.50;;;5.10;99.90;;;;;;5039353;28;20215;-74
2023/03/09 10:55:51;;;;;;;30.57;16.63;;;5.10;99.90;;;;;;5041668;28;20293;-75
2023/03/09 10:58:32;;;;;;;31.50;15.80;;;5.10;99.90;;;;;;5041150;28;20557;-75
2023/03/09 11:01:05;;;;;;;32.40;17.30;;;5.10;99.90;;;;;;5038320;28;20246;-75
2023/03/09 11:03:41;;;;;;;30.80;16.83;;;5.10;99.90;;;;;;5039271;28;20299;-73
2023/03/09 11:06:26;;;;;;;32.13;16.20;;;5.10;99.90;;;;;;5041246;28;20236;-73
2023/03/09 11:08:56;;;;;;;32.33;16.13;;;5.10;99.90;;;;;;5037762;28;20237;-73
2023/03/09 11:11:42;;;;;;;34.03;17.33;;;5.10;99.90;;;;;;5040169;28;20653;-73
2023/03/09 11:14:29;;;;;;;33.57;16.53;;;5.10;99.90;;;;;;5044736;28;20233;-74
2023/03/09 11:16:59;;;;;;;32.87;16.07;;;5.00;99.90;;;;;;5040796;28;20231;-73
2023/03/09 11:19:27;;;;;;;34.43;16.83;;;5.00;99.90;;;;;;5020568;28;20635;-72
2023/03/09 11:21:57;;;;;;;33.30;17.47;;;5.00;99.90;;;;;;5040521;28;20293;-74
2023/03/09 11:24:29;;;;;;;34.37;17.27;;;5.00;99.90;;;;;;5039798;28;20226;-73
2023/03/09 11:27:01;;;;;;;31.63;16.60;;;5.00;99.90;;;;;;5041258;28;20219;-73
2023/03/09 11:29:41;;;;;;;33.80;16.70;;;5.10;99.90;;;;;;5022852;28;20662;-74
2023/03/09 11:32:11;;;;;;;31.03;16.00;;;5.10;99.90;;;;;;5036311;28;20682;-73
2023/03/09 11:34:42;;;;;;;31.87;17.27;;;5.10;99.90;;;;;;5041312;28;20293;-74
2023/03/09 11:37:26;;;;;;;36.43;17.53;;;5.20;99.90;;;;;;5040367;28;20298;-72
2023/03/09 11:40:05;;;;;;;34.37;16.70;;;5.20;99.90;;;;;;5045228;28;20224;-72
2023/03/09 11:42:57;;;;;;;29.33;15.67;;;5.20;99.90;;;;;;5042210;28;20213;-71
2023/03/09 11:45:30;;;;;;;35.70;17.87;;;5.20;99.90;;;;;;5044208;28;20201;-71
2023/03/09 11:48:05;;;;;;;35.03;16.47;;;5.20;99.90;;;;;;5042051;28;20341;-73
2023/03/09 11:50:39;;;;;;;31.50;16.63;;;5.20;99.90;;;;;;5041172;28;20221;-71
2023/03/09 11:53:18;;;;;;;32.23;16.27;;;5.20;99.90;;;;;;5041603;28;20237;-71
2023/03/09 11:55:49;;;;;;;35.23;16.93;;;5.30;99.90;;;;;;5045290;28;20667;-71
2023/03/09 11:58:21;;;;;;;33.87;16.40;;;5.30;99.90;;;;;;5041061;28;20266;-70
2023/03/09 12:00:55;;;;;;;32.70;17.27;;;5.30;99.90;;;;;;5042333;28;20295;-71
2023/03/09 12:03:23;;;;;;;34.17;17.00;;;5.40;99.90;;;;;;5043909;28;20218;-72
2023/03/09 12:05:56;;;;;;;32.93;17.23;;;5.40;99.90;;;;;;5044007;28;20233;-69
2023/03/09 12:08:34;;;;;;;32.67;17.47;;;5.30;99.90;;;;;;5042332;28;20610;-72
2023/03/09 12:11:10;;;;;;;33.97;18.03;;;5.30;99.90;;;;;;5039626;28;20320;-72
2023/03/09 12:14:03;;;;;;;38.53;19.57;;;5.30;99.90;;;;;;5044248;28;20212;-72
2023/03/09 12:16:38;;;;;;;35.77;17.70;;;5.30;99.90;;;;;;5037209;28;20211;-71
2023/03/09 12:19:16;;;;;;;33.97;17.93;;;5.30;99.90;;;;;;5042289;28;20270;-73
2023/03/09 12:21:47;;;;;;;36.10;18.57;;;5.20;99.90;;;;;;5031360;28;20222;-71
2023/03/09 12:24:33;;;;;;;36.43;18.17;;;5.10;99.90;;;;;;5043748;28;20298;-72
2023/03/09 12:27:17;;;;;;;35.37;16.87;;;5.00;99.90;;;;;;5043933;28;20237;-71
2023/03/09 12:29:52;;;;;;;37.07;18.40;;;5.00;99.90;;;;;;5042891;28;20527;-73
2023/03/09 12:32:25;;;;;;;33.73;16.57;;;5.00;99.90;;;;;;5040629;28;20232;-71
2023/03/09 12:34:57;;;;;;;32.43;16.17;;;5.10;99.90;;;;;;5041867;28;20277;-73
2023/03/09 12:37:36;;;;;;;33.77;16.73;;;5.20;99.90;;;;;;5043379;28;20222;-72
2023/03/09 12:40:31;;;;;;;33.03;16.37;;;5.20;99.90;;;;;;5023905;28;20210;-71
2023/03/09 12:43:13;;;;;;;34.20;17.10;;;5.20;99.90;;;;;;5041018;28;20284;-72
2023/03/09 12:45:42;;;;;;;35.83;17.70;;;5.10;99.90;;;;;;5041094;28;20728;-71
2023/03/09 12:48:36;;;;;;;36.87;16.97;;;5.10;99.90;;;;;;5040410;28;20486;-73
2023/03/09 12:51:19;;;;;;;33.90;18.43;;;5.10;99.90;;;;;;5042427;28;20231;-71